Welcome to the updated website with new and more accurate equipment. Established 2007


Active alerts


No alerts

Local Station more information Local Station


Mount Mesnard more information Mount Mesnard


Visit our other weather sites:

Template documentation
and downloads

And another site


CBI


Nearby METAR Reports

   
KSAW - Sawyer, Michigan
Updated: 21-08-2018 19:48
Partly Cloudy  
Partly Cloudy  
   Wind: NNW 11.5 mph<br />Gust to 11.5 mph
Wind: NNW 11.5 mph
Gust to 11.5 mph
Temperature: 59°F
Dew Point: 50°F
Humidity: 72%
Barometer: 30 inHg
Clouds: Partly Cloudy
Visibility: 10 mi
Cloud details: Partly Cloudy 3658 m
KSAW 212348Z 34010G15KT 10SM SCT120 15/10 A3000
KESC - Escanaba, Michigan
Updated: 21-08-2018 19:56
Clear  
Clear  
   Wind: NNW 9.2 mph
Wind: NNW 9.2 mph
Temperature: 62.6°F
Dew Point: 53.6°F
Humidity: 73%
Barometer: 29.96 inHg
Clouds: Clear
Visibility: 10 mi
Cloud details: Clear
KESC 212356Z AUTO 34008KT 10SM CLR 17/12 A2996 RMK AO2 SLP165 T01670117 10183 20167 53005
KIMT - Iron Mountain, MI
Updated: 21-08-2018 19:54
Partly Cloudy  
Partly Cloudy  
   Wind: NNW 12.7 mph
Wind: NNW 12.7 mph
Temperature: 62.6°F
Dew Point: 46.4°F
Humidity: 56%
Barometer: 30 inHg
Clouds: Partly Cloudy
Visibility: 10 mi
Cloud details: Partly Cloudy 3353 m
KIMT 212354Z AUTO 34011KT 10SM SCT110 17/08 A3000 RMK AO2 SLP160 T01720083 10206 20172 51010
KGRB - Green Bay, WI
Updated: 21-08-2018 19:53
Clear  
Clear  
   Wind: NNW 8.1 mph
Wind: NNW 8.1 mph
Temperature: 66.2°F
Dew Point: 55.4°F
Humidity: 68%
Barometer: 29.99 inHg
Clouds: Clear
Visibility: 10 mi
Cloud details: Clear
KGRB 212353Z 34007KT 10SM CLR 19/13 A2999 RMK AO2 SLP154 T01890128 10222 20189 53013
KDET - Detroit, MI
Updated: 21-08-2018 19:53
Few Clouds  
Few Clouds  
   Wind: NNW 16.1 mph<br />Gust to 16.1 mph
Wind: NNW 16.1 mph
Gust to 16.1 mph
Temperature: 73.4°F
Dew Point: 60.8°F
Humidity: 65%
Barometer: 29.78 inHg
Clouds: Few Clouds
Visibility: 10 mi
Cloud details: Few Clouds 1097 m
KDET 212353Z 33014G21KT 10SM FEW036 23/16 A2978 RMK AO2 SLP082 60001 T02280161 10289 20228 51027
 

Script developed by  Saratoga-weather.org Adapted for the template by  Weerstation Leuven

You find our weather info also at:

Weather Underground

Midwestern Weather Network

WeatherlinkIP

Citizen Weather Observer Program (CWOP)

Equipment we use:

Weather-station
Davis VP2

Weather-program
Davis Weatherlink.Com

Davis VP2

Davis Weatherlink.Com